Time;durP1;ratioP1;P1;durP2;ratioP2;P2;SDS_P1;SDS_P2;PMS_P1;PMS_P2;Temp;Humidity;BMP_temperature;BMP_pressure;BME280_temperature;BME280_humidity;BME280_pressure;Samples;Min_cycle;Max_cycle;Signal;HPM_P1;HPM_P2
2022/04/15 00:02:17;;;;;;;15.10;13.40;;;10.80;99.90;;;;;;5073647;28;20312;-66
2022/04/15 00:04:43;;;;;;;15.80;14.40;;;10.70;99.90;;;;;;5073271;28;20227;-66
2022/04/15 00:07:10;;;;;;;16.53;14.80;;;10.60;99.90;;;;;;5073383;28;20542;-66
2022/04/15 00:09:36;;;;;;;16.00;13.93;;;10.60;99.90;;;;;;5072742;28;20162;-65
2022/04/15 00:12:07;;;;;;;15.27;13.77;;;10.50;99.90;;;;;;5073395;28;20212;-65
2022/04/15 00:14:34;;;;;;;18.17;14.60;;;10.40;99.90;;;;;;5073412;28;20177;-65
2022/04/15 00:16:59;;;;;;;16.57;14.37;;;10.40;99.90;;;;;;5073160;28;20288;-65
2022/04/15 00:19:25;;;;;;;17.43;15.53;;;10.30;99.90;;;;;;5073198;28;20300;-64
2022/04/15 00:21:50;;;;;;;20.13;14.73;;;10.30;99.90;;;;;;5073282;28;20186;-65
2022/04/15 00:24:16;;;;;;;16.50;14.83;;;10.20;99.90;;;;;;5073288;28;20182;-65
2022/04/15 00:26:42;;;;;;;18.07;15.47;;;10.20;99.90;;;;;;5072948;28;20520;-65
2022/04/15 00:29:07;;;;;;;21.20;16.20;;;10.10;99.90;;;;;;5072995;28;20665;-65
2022/04/15 00:31:34;;;;;;;21.87;17.53;;;10.10;99.90;;;;;;5073093;28;20210;-65
2022/04/15 00:34:03;;;;;;;19.17;15.97;;;10.10;99.90;;;;;;5073000;28;20174;-65
2022/04/15 00:36:29;;;;;;;16.87;14.93;;;10.00;99.90;;;;;;5072712;28;20386;-65
2022/04/15 00:38:54;;;;;;;16.93;15.20;;;10.00;99.90;;;;;;5072966;28;20209;-64
2022/04/15 00:41:20;;;;;;;18.73;16.30;;;9.90;99.90;;;;;;5072754;28;20178;-65
2022/04/15 00:43:46;;;;;;;18.00;16.30;;;9.90;99.90;;;;;;5070377;28;20221;-64
2022/04/15 00:46:12;;;;;;;18.27;16.30;;;9.90;99.90;;;;;;5051249;28;20248;-66
2022/04/15 00:48:38;;;;;;;27.33;16.50;;;9.90;99.90;;;;;;5052845;28;20175;-66
2022/04/15 00:51:05;;;;;;;21.00;15.90;;;9.90;99.90;;;;;;5051282;28;20262;-65
2022/04/15 00:53:32;;;;;;;19.10;16.70;;;9.90;99.90;;;;;;5051127;28;20191;-66
2022/04/15 00:56:01;;;;;;;21.20;16.70;;;9.80;99.90;;;;;;5052261;28;20202;-65
2022/04/15 00:58:28;;;;;;;21.67;17.13;;;9.80;99.90;;;;;;5052654;28;20648;-65
2022/04/15 01:00:57;;;;;;;23.43;17.53;;;9.80;99.90;;;;;;5052514;28;20224;-66
2022/04/15 01:03:24;;;;;;;24.87;18.27;;;9.80;99.90;;;;;;5052408;28;20611;-65
2022/04/15 01:05:52;;;;;;;24.60;16.80;;;9.70;99.90;;;;;;5052190;28;20530;-66
2022/04/15 01:08:22;;;;;;;21.57;17.37;;;9.70;99.90;;;;;;5052469;28;20194;-67
2022/04/15 01:10:51;;;;;;;24.73;18.93;;;9.70;99.90;;;;;;5052674;28;20167;-66
2022/04/15 01:13:17;;;;;;;26.53;18.20;;;9.70;99.90;;;;;;5052398;28;20219;-66
2022/04/15 01:15:44;;;;;;;27.07;19.63;;;9.70;99.90;;;;;;5051915;28;20230;-65
2022/04/15 01:18:10;;;;;;;24.53;18.60;;;9.70;99.90;;;;;;5050870;28;20820;-65
2022/04/15 01:20:36;;;;;;;24.87;19.03;;;9.70;99.90;;;;;;5052237;28;20174;-64
2022/04/15 01:23:06;;;;;;;30.30;18.87;;;9.70;99.90;;;;;;5051996;28;20191;-67
2022/04/15 01:25:32;;;;;;;24.30;19.43;;;9.80;99.90;;;;;;5050414;28;20174;-67
2022/04/15 01:27:58;;;;;;;27.90;19.43;;;9.80;99.90;;;;;;5051963;28;20656;-64
2022/04/15 01:30:24;;;;;;;26.10;19.87;;;9.80;99.90;;;;;;5052092;28;20185;-66
2022/04/15 01:32:50;;;;;;;22.83;18.13;;;9.80;99.90;;;;;;5051747;28;20199;-66
2022/04/15 01:35:17;;;;;;;22.50;19.37;;;9.80;99.90;;;;;;5051469;28;20175;-66
2022/04/15 01:37:44;;;;;;;24.87;19.30;;;9.80;99.90;;;;;;5051781;28;20171;-66
2022/04/15 01:40:11;;;;;;;28.27;19.60;;;9.80;99.90;;;;;;5051760;28;20514;-65
2022/04/15 01:42:39;;;;;;;23.30;19.20;;;9.80;99.90;;;;;;5051653;28;20568;-66
2022/04/15 01:45:05;;;;;;;26.87;20.67;;;9.80;99.90;;;;;;5063208;28;20529;-65
2022/04/15 01:47:31;;;;;;;26.27;20.03;;;9.80;99.90;;;;;;5070217;28;20239;-65
2022/04/15 01:49:58;;;;;;;23.60;20.43;;;9.80;99.90;;;;;;5071574;28;20592;-66
2022/04/15 01:52:23;;;;;;;25.83;21.20;;;9.80;99.90;;;;;;5071612;28;20198;-66
2022/04/15 01:54:49;;;;;;;31.10;19.30;;;9.70;99.90;;;;;;5071213;28;20596;-66
2022/04/15 01:57:15;;;;;;;27.87;20.87;;;9.80;99.90;;;;;;5071978;28;20683;-65
2022/04/15 01:59:42;;;;;;;25.23;19.87;;;9.70;99.90;;;;;;5071512;28;20174;-65
2022/04/15 02:02:08;;;;;;;36.03;21.50;;;9.70;99.90;;;;;;5071513;28;20190;-65
2022/04/15 02:04:34;;;;;;;26.20;20.97;;;9.70;99.90;;;;;;5071051;28;20170;-65
2022/04/15 02:06:59;;;;;;;29.70;20.47;;;9.60;99.90;;;;;;5071376;28;20679;-65
2022/04/15 02:09:25;;;;;;;26.47;21.10;;;9.60;99.90;;;;;;5070134;28;20224;-66
2022/04/15 02:11:51;;;;;;;31.50;22.40;;;9.60;99.90;;;;;;5071261;28;20600;-65
2022/04/15 02:14:18;;;;;;;32.93;22.30;;;9.60;99.90;;;;;;5070406;28;20228;-65
2022/04/15 02:16:44;;;;;;;29.10;21.90;;;9.60;99.90;;;;;;5070996;28;20206;-65
2022/04/15 02:19:10;;;;;;;27.57;22.43;;;9.60;99.90;;;;;;5070107;28;20166;-65
2022/04/15 02:21:36;;;;;;;26.73;20.73;;;9.50;99.90;;;;;;5071199;28;20211;-65
2022/04/15 02:24:01;;;;;;;31.17;22.87;;;9.50;99.90;;;;;;5071127;28;20260;-64
2022/04/15 02:26:27;;;;;;;29.67;21.70;;;9.60;99.90;;;;;;5071044;28;20609;-65
2022/04/15 02:28:53;;;;;;;30.93;22.80;;;9.50;99.90;;;;;;5071237;28;20178;-65
2022/04/15 02:31:18;;;;;;;30.37;22.43;;;9.50;99.90;;;;;;5071354;28;20178;-66
2022/04/15 02:33:44;;;;;;;37.83;24.83;;;9.50;99.90;;;;;;5071117;28;20197;-66
2022/04/15 02:36:10;;;;;;;32.07;25.13;;;9.50;99.90;;;;;;5070856;28;20618;-66
2022/04/15 02:38:35;;;;;;;33.93;23.77;;;9.50;99.90;;;;;;5071267;28;20223;-66
2022/04/15 02:41:03;;;;;;;32.40;24.27;;;9.50;99.90;;;;;;5071502;28;20170;-66
2022/04/15 02:43:33;;;;;;;31.17;23.70;;;9.40;99.90;;;;;;5070696;28;20210;-66
2022/04/15 02:46:00;;;;;;;39.03;24.17;;;9.50;99.90;;;;;;5050624;28;20171;-66
2022/04/15 02:48:26;;;;;;;32.37;24.80;;;9.50;99.90;;;;;;5051042;28;20564;-66
2022/04/15 02:50:52;;;;;;;30.23;24.63;;;9.40;99.90;;;;;;5050794;28;20174;-66
2022/04/15 02:53:18;;;;;;;35.67;25.13;;;9.40;99.90;;;;;;5050732;28;20194;-66
2022/04/15 02:55:43;;;;;;;34.23;25.17;;;9.40;99.90;;;;;;5050623;28;20232;-66
2022/04/15 02:58:09;;;;;;;36.27;25.90;;;9.40;99.90;;;;;;5050891;28;20484;-66
2022/04/15 03:00:34;;;;;;;41.60;27.30;;;9.40;99.90;;;;;;5049577;28;20175;-66
2022/04/15 03:03:00;;;;;;;37.43;24.43;;;9.40;99.90;;;;;;5050800;28;20480;-66
2022/04/15 03:05:26;;;;;;;36.73;25.43;;;9.30;99.90;;;;;;5049218;28;20175;-68
2022/04/15 03:07:51;;;;;;;41.77;26.00;;;9.30;99.90;;;;;;5050984;28;20251;-67
2022/04/15 03:10:17;;;;;;;35.07;24.97;;;9.30;99.90;;;;;;5050086;28;20563;-66
2022/04/15 03:12:43;;;;;;;32.67;26.67;;;9.20;99.90;;;;;;5050848;28;20191;-66
2022/04/15 03:15:09;;;;;;;34.93;25.50;;;9.20;99.90;;;;;;5050266;28;20171;-66
2022/04/15 03:17:35;;;;;;;39.73;27.53;;;9.20;99.90;;;;;;5052320;28;20174;-66
2022/04/15 03:20:03;;;;;;;40.80;26.03;;;9.20;99.90;;;;;;5054639;28;20167;-67
2022/04/15 03:22:30;;;;;;;33.23;25.33;;;9.20;99.90;;;;;;5054541;28;20191;-67
2022/04/15 03:24:55;;;;;;;39.93;27.30;;;9.10;99.90;;;;;;5054046;28;20513;-67
2022/04/15 03:27:21;;;;;;;41.10;26.67;;;9.10;99.90;;;;;;5052895;28;20178;-66
2022/04/15 03:29:47;;;;;;;36.87;24.53;;;9.10;99.90;;;;;;5054171;28;20205;-66
2022/04/15 03:32:12;;;;;;;45.70;27.30;;;9.10;99.90;;;;;;5054261;28;20686;-67
2022/04/15 03:34:38;;;;;;;35.43;24.03;;;9.10;99.90;;;;;;5054008;28;20628;-67
2022/04/15 03:37:04;;;;;;;31.87;25.23;;;9.00;99.90;;;;;;5054006;28;20210;-66
2022/04/15 03:39:30;;;;;;;37.73;25.90;;;9.00;99.90;;;;;;5054112;28;20175;-66
2022/04/15 03:41:55;;;;;;;37.30;26.43;;;9.00;99.90;;;;;;5053778;28;20198;-67
2022/04/15 03:44:21;;;;;;;40.07;26.87;;;8.90;99.90;;;;;;5061687;28;20253;-66
2022/04/15 03:46:46;;;;;;;38.97;25.57;;;8.90;99.90;;;;;;5073935;28;20611;-66
2022/04/15 03:49:12;;;;;;;41.73;26.90;;;8.90;99.90;;;;;;5072663;28;20178;-66
2022/04/15 03:51:38;;;;;;;39.20;28.37;;;8.90;99.90;;;;;;5073800;28;20606;-67
2022/04/15 03:54:03;;;;;;;35.83;26.77;;;8.80;99.90;;;;;;5073789;28;20257;-67
2022/04/15 03:56:29;;;;;;;36.17;26.87;;;8.80;99.90;;;;;;5073513;28;20202;-67
2022/04/15 03:58:55;;;;;;;39.70;26.67;;;8.80;99.90;;;;;;5073631;28;20216;-66
2022/04/15 04:01:20;;;;;;;35.07;25.90;;;8.80;99.90;;;;;;5073563;28;20212;-67
2022/04/15 04:03:46;;;;;;;45.57;28.97;;;8.70;99.90;;;;;;5073913;28;20194;-66
2022/04/15 04:06:11;;;;;;;40.40;27.77;;;8.70;99.90;;;;;;5072604;28;20272;-65
2022/04/15 04:08:37;;;;;;;43.17;27.53;;;8.70;99.90;;;;;;5073655;28;20261;-67
2022/04/15 04:11:03;;;;;;;39.10;26.87;;;8.60;99.90;;;;;;5072859;28;20178;-67
2022/04/15 04:13:28;;;;;;;35.20;25.37;;;8.60;99.90;;;;;;5073307;28;20193;-67
2022/04/15 04:15:54;;;;;;;40.87;28.27;;;8.60;99.90;;;;;;5073159;28;20648;-65
2022/04/15 04:18:21;;;;;;;47.10;29.23;;;8.60;99.90;;;;;;5072252;28;20178;-66
2022/04/15 04:20:50;;;;;;;41.63;27.57;;;8.60;99.90;;;;;;5073305;28;20162;-66
2022/04/15 04:23:16;;;;;;;39.90;28.10;;;8.60;99.90;;;;;;5073262;28;20190;-65
2022/04/15 04:25:42;;;;;;;43.20;27.90;;;8.60;99.90;;;;;;5073011;28;20233;-66
2022/04/15 04:28:07;;;;;;;41.33;27.73;;;8.60;99.90;;;;;;5071555;28;20213;-66
2022/04/15 04:30:33;;;;;;;38.53;26.97;;;8.60;99.90;;;;;;5073512;28;20253;-66
2022/04/15 04:32:59;;;;;;;45.80;27.73;;;8.60;99.90;;;;;;5072979;28;20205;-65
2022/04/15 04:35:25;;;;;;;45.80;29.00;;;8.60;99.90;;;;;;5072661;28;20182;-65
2022/04/15 04:37:51;;;;;;;43.87;28.83;;;8.50;99.90;;;;;;5073003;28;20329;-68
2022/04/15 04:40:17;;;;;;;43.30;28.83;;;8.60;99.90;;;;;;5073011;28;20261;-65
2022/04/15 04:42:45;;;;;;;43.57;27.97;;;8.50;99.90;;;;;;5072935;28;20666;-66
2022/04/15 04:45:11;;;;;;;50.60;30.67;;;8.50;99.90;;;;;;5058352;28;20182;-66
2022/04/15 04:47:41;;;;;;;49.97;29.40;;;8.50;99.90;;;;;;5052983;28;20254;-66
2022/04/15 04:50:10;;;;;;;47.33;29.47;;;8.50;99.90;;;;;;5052756;28;20181;-66
2022/04/15 04:52:37;;;;;;;51.70;30.07;;;8.50;99.90;;;;;;5052780;28;20191;-66
2022/04/15 04:55:03;;;;;;;46.73;30.47;;;8.50;99.90;;;;;;5052276;28;20194;-67
2022/04/15 04:57:29;;;;;;;51.77;31.47;;;8.50;99.90;;;;;;5052510;28;20660;-66
2022/04/15 04:59:56;;;;;;;51.77;30.63;;;8.50;99.90;;;;;;5052618;28;20173;-66
2022/04/15 05:02:22;;;;;;;49.53;32.17;;;8.60;99.90;;;;;;5052602;28;20244;-66
2022/04/15 05:04:48;;;;;;;45.20;29.13;;;8.60;99.90;;;;;;5052175;28;20582;-66
2022/04/15 05:07:14;;;;;;;46.90;29.47;;;8.60;99.90;;;;;;5051142;28;20179;-66
2022/04/15 05:09:41;;;;;;;44.30;29.97;;;8.60;99.90;;;;;;5051258;28;20175;-66
2022/04/15 05:12:11;;;;;;;50.40;30.63;;;8.70;99.90;;;;;;5052224;28;20193;-66
2022/04/15 05:14:37;;;;;;;47.10;30.47;;;8.70;99.90;;;;;;5052003;28;20573;-66
2022/04/15 05:17:03;;;;;;;48.83;29.77;;;8.70;99.90;;;;;;5050813;28;20317;-66
2022/04/15 05:19:29;;;;;;;51.80;31.20;;;8.70;99.90;;;;;;5052122;28;20171;-67
2022/04/15 05:21:55;;;;;;;50.37;30.33;;;8.80;99.90;;;;;;5050724;28;20195;-66
2022/04/15 05:24:20;;;;;;;53.50;31.93;;;8.80;99.90;;;;;;5052248;28;20171;-67
2022/04/15 05:26:46;;;;;;;45.97;29.90;;;8.90;99.90;;;;;;5051651;28;20645;-66
2022/04/15 05:29:11;;;;;;;58.53;32.00;;;9.00;99.90;;;;;;5052081;28;20232;-66
2022/04/15 05:31:37;;;;;;;50.27;31.73;;;9.10;99.90;;;;;;5051858;28;20257;-66
2022/04/15 05:34:03;;;;;;;51.90;31.83;;;9.10;99.90;;;;;;5050554;28;20171;-67
2022/04/15 05:36:29;;;;;;;46.93;29.83;;;9.10;99.90;;;;;;5051633;28;20333;-66
2022/04/15 05:38:54;;;;;;;48.47;32.30;;;9.20;99.90;;;;;;5051811;28;20708;-66
2022/04/15 05:41:20;;;;;;;48.80;31.80;;;9.30;99.90;;;;;;5051107;28;20171;-66
2022/04/15 05:43:46;;;;;;;49.30;29.17;;;9.30;99.90;;;;;;5058439;28;20248;-66
2022/04/15 05:46:12;;;;;;;45.93;31.23;;;9.40;99.90;;;;;;5051479;28;20174;-66
2022/04/15 05:48:38;;;;;;;50.50;30.77;;;9.40;99.90;;;;;;5051804;28;20175;-66
2022/04/15 05:51:03;;;;;;;44.47;31.43;;;9.40;99.90;;;;;;5051889;28;20178;-66
2022/04/15 05:53:29;;;;;;;43.33;29.80;;;9.50;99.90;;;;;;5051503;28;20207;-66
2022/04/15 05:55:57;;;;;;;47.93;29.13;;;9.60;99.90;;;;;;5051332;28;20610;-67
2022/04/15 05:58:23;;;;;;;36.40;28.70;;;9.70;99.90;;;;;;5050270;28;20629;-67
2022/04/15 06:00:49;;;;;;;44.60;28.83;;;9.80;99.90;;;;;;5050624;28;20325;-68
2022/04/15 06:03:14;;;;;;;38.30;28.30;;;9.90;99.90;;;;;;5051471;28;20266;-66
2022/04/15 06:05:40;;;;;;;49.23;29.40;;;10.10;99.90;;;;;;5051311;28;20534;-66
2022/04/15 06:08:06;;;;;;;41.40;27.90;;;10.30;99.90;;;;;;5049830;28;20185;-66
2022/04/15 06:10:31;;;;;;;34.77;25.60;;;10.60;99.90;;;;;;5050641;28;20460;-67
2022/04/15 06:13:04;;;;;;;33.57;24.40;;;10.80;99.90;;;;;;5049849;28;20199;-67
2022/04/15 06:15:33;;;;;;;30.37;24.43;;;11.10;99.90;;;;;;5049423;28;20178;-67
2022/04/15 06:18:02;;;;;;;31.43;23.27;;;11.40;99.90;;;;;;5051022;28;20173;-68
2022/04/15 06:20:30;;;;;;;23.60;18.47;;;11.90;99.90;;;;;;5051269;28;20706;-67
2022/04/15 06:22:56;;;;;;;25.47;19.17;;;12.20;99.90;;;;;;5050695;28;20205;-66
2022/04/15 06:25:22;;;;;;;23.67;18.80;;;12.50;99.90;;;;;;5050706;28;20178;-68
2022/04/15 06:27:50;;;;;;;20.37;16.60;;;12.90;99.90;;;;;;5050818;28;20189;-67
2022/04/15 06:30:16;;;;;;;22.43;16.93;;;13.30;99.90;;;;;;5051064;28;20193;-68
2022/04/15 06:32:42;;;;;;;19.87;16.33;;;13.40;99.90;;;;;;5050979;28;20186;-67
2022/04/15 06:35:08;;;;;;;23.47;16.47;;;13.50;99.90;;;;;;5050609;28;20177;-67
2022/04/15 06:37:33;;;;;;;20.47;17.13;;;13.60;99.90;;;;;;5049586;28;20202;-67
2022/04/15 06:39:59;;;;;;;18.63;16.60;;;13.60;99.90;;;;;;5049603;28;20226;-66
2022/04/15 06:42:27;;;;;;;18.07;15.10;;;13.80;99.90;;;;;;5050932;28;20679;-67
2022/04/15 06:44:53;;;;;;;17.87;15.27;;;14.00;99.90;;;;;;5060823;28;20170;-67
2022/04/15 06:47:19;;;;;;;20.03;15.40;;;14.50;99.90;;;;;;5070923;28;20265;-66
2022/04/15 06:49:45;;;;;;;17.17;15.37;;;14.70;99.90;;;;;;5070673;28;20644;-67
2022/04/15 06:52:12;;;;;;;21.93;14.83;;;14.60;99.90;;;;;;5073740;28;20194;-67
2022/04/15 06:54:38;;;;;;;17.63;15.00;;;14.30;99.90;;;;;;5074673;28;20249;-66
2022/04/15 06:57:04;;;;;;;18.40;16.27;;;14.10;99.90;;;;;;5074594;28;20292;-67
2022/04/15 06:59:29;;;;;;;17.20;15.07;;;14.00;99.90;;;;;;5073332;28;20193;-67
2022/04/15 07:01:55;;;;;;;16.93;15.23;;;14.10;99.90;;;;;;5072901;28;20202;-66
2022/04/15 07:04:22;;;;;;;21.53;16.87;;;14.10;99.90;;;;;;5073335;28;20269;-67
2022/04/15 07:06:48;;;;;;;17.77;15.87;;;14.30;99.90;;;;;;5074386;28;20169;-67
2022/04/15 07:09:13;;;;;;;22.33;18.33;;;14.30;99.90;;;;;;5074011;28;20182;-67
2022/04/15 07:11:39;;;;;;;19.53;16.97;;;14.10;99.90;;;;;;5073029;28;20264;-67
2022/04/15 07:14:05;;;;;;;25.13;20.57;;;13.80;99.90;;;;;;5073126;28;20522;-66
2022/04/15 07:16:31;;;;;;;25.70;21.90;;;13.50;99.90;;;;;;5073063;28;20208;-65
2022/04/15 07:18:57;;;;;;;33.97;24.80;;;13.00;99.90;;;;;;5074307;28;20245;-66
2022/04/15 07:21:24;;;;;;;36.77;28.77;;;12.70;99.90;;;;;;5074259;28;20257;-66
2022/04/15 07:23:50;;;;;;;38.83;29.90;;;12.40;99.90;;;;;;5073882;28;20194;-66
2022/04/15 07:26:15;;;;;;;47.67;32.07;;;12.20;99.90;;;;;;5073979;28;20535;-66
2022/04/15 07:28:41;;;;;;;51.17;34.43;;;12.10;99.90;;;;;;5072968;28;20200;-66
2022/04/15 07:31:07;;;;;;;54.30;36.20;;;12.00;99.90;;;;;;5074038;28;20250;-66
2022/04/15 07:33:32;;;;;;;61.37;37.53;;;11.80;99.90;;;;;;5074249;28;20205;-66
2022/04/15 07:35:58;;;;;;;66.63;40.03;;;11.60;99.90;;;;;;5073491;28;20224;-67
2022/04/15 07:38:24;;;;;;;77.27;39.83;;;11.50;99.90;;;;;;5072864;28;20215;-67
2022/04/15 07:40:49;;;;;;;68.43;39.87;;;11.40;99.90;;;;;;5073897;28;20213;-66
2022/04/15 07:43:15;;;;;;;88.57;41.70;;;11.30;99.90;;;;;;5052990;28;20241;-66
2022/04/15 07:45:41;;;;;;;74.80;40.70;;;11.30;99.90;;;;;;5070477;28;20628;-66
2022/04/15 07:48:07;;;;;;;85.03;46.00;;;11.20;99.90;;;;;;5072411;28;20182;-66
2022/04/15 07:50:32;;;;;;;86.33;43.33;;;11.00;99.90;;;;;;5072663;28;20563;-66
2022/04/15 07:52:59;;;;;;;85.47;46.60;;;11.10;99.90;;;;;;5073499;28;20194;-65
2022/04/15 07:55:28;;;;;;;79.13;44.20;;;11.20;99.90;;;;;;5073441;28;20709;-65
2022/04/15 07:57:54;;;;;;;75.33;41.33;;;11.40;99.90;;;;;;5073444;28;20166;-66
2022/04/15 08:00:20;;;;;;;67.30;39.60;;;11.40;99.90;;;;;;5072520;28;20212;-66
2022/04/15 08:02:46;;;;;;;68.30;39.13;;;11.40;99.90;;;;;;5072666;28;20193;-65
2022/04/15 08:05:13;;;;;;;73.57;40.80;;;11.40;99.90;;;;;;5073315;28;20174;-66
2022/04/15 08:07:39;;;;;;;76.13;42.23;;;11.40;99.90;;;;;;5073320;28;20564;-66
2022/04/15 08:10:06;;;;;;;74.00;42.13;;;11.30;99.90;;;;;;5072004;28;20170;-66
2022/04/15 08:12:32;;;;;;;80.13;40.63;;;11.30;99.90;;;;;;5070214;28;20193;-66
2022/04/15 08:14:58;;;;;;;76.60;43.87;;;11.20;99.90;;;;;;5072896;28;20181;-66
2022/04/15 08:17:25;;;;;;;83.70;42.67;;;11.10;99.90;;;;;;5073188;28;20289;-66
2022/04/15 08:19:51;;;;;;;76.73;42.00;;;11.10;99.90;;;;;;5073050;28;20177;-66
2022/04/15 08:22:16;;;;;;;78.17;42.17;;;11.10;99.90;;;;;;5073131;28;20190;-66
2022/04/15 08:24:43;;;;;;;73.23;42.53;;;11.00;99.90;;;;;;5072938;28;20170;-67
2022/04/15 08:27:09;;;;;;;85.30;42.97;;;10.80;99.90;;;;;;5072950;28;20559;-67
2022/04/15 08:29:38;;;;;;;80.50;43.50;;;10.90;99.90;;;;;;5073151;28;20212;-66
2022/04/15 08:32:06;;;;;;;81.13;41.67;;;10.80;99.90;;;;;;5072885;28;20190;-66
2022/04/15 08:34:32;;;;;;;84.23;43.07;;;10.80;99.90;;;;;;5072772;28;20673;-66
2022/04/15 08:36:57;;;;;;;83.97;42.37;;;10.80;99.90;;;;;;5071601;28;20242;-66
2022/04/15 08:39:23;;;;;;;79.30;41.47;;;10.90;99.90;;;;;;5072351;28;20332;-67
2022/04/15 08:41:49;;;;;;;80.80;39.90;;;10.90;99.90;;;;;;5071144;28;20205;-67
2022/04/15 08:44:14;;;;;;;76.17;40.37;;;11.10;99.90;;;;;;5064903;28;20580;-66
2022/04/15 08:46:41;;;;;;;63.27;35.60;;;11.30;99.90;;;;;;5052305;28;20250;-66
2022/04/15 08:49:07;;;;;;;65.60;37.03;;;11.50;99.90;;;;;;5052607;28;20175;-66
2022/04/15 08:51:35;;;;;;;58.87;33.93;;;11.70;99.90;;;;;;5052493;28;20166;-66
2022/04/15 08:54:03;;;;;;;56.30;32.97;;;12.00;99.90;;;;;;5052446;28;20171;-66
2022/04/15 08:56:29;;;;;;;45.00;30.53;;;12.50;99.90;;;;;;5052347;28;20203;-66
2022/04/15 08:58:56;;;;;;;41.40;27.50;;;13.00;99.90;;;;;;5051267;28;20703;-65
2022/04/15 09:01:21;;;;;;;28.57;21.47;;;13.30;99.90;;;;;;5052672;28;20177;-66
2022/04/15 09:03:47;;;;;;;25.20;19.17;;;13.40;99.90;;;;;;5052196;28;20675;-65
2022/04/15 09:06:16;;;;;;;25.83;19.97;;;13.00;99.90;;;;;;5050746;28;20182;-66
2022/04/15 09:09:04;;;;;;;27.43;21.50;;;12.80;99.90;;;;;;5052417;28;20183;-65
2022/04/15 09:11:31;;;;;;;24.93;21.40;;;13.20;99.90;;;;;;5051479;28;20266;-66
2022/04/15 09:13:57;;;;;;;21.23;18.90;;;13.80;99.90;;;;;;5051705;28;20631;-66
2022/04/15 09:16:25;;;;;;;20.80;17.43;;;14.70;99.90;;;;;;5064102;28;20229;-66
2022/04/15 09:18:50;;;;;;;21.50;17.47;;;15.50;99.90;;;;;;5071932;28;20210;-67
2022/04/15 09:21:22;;;;;;;21.77;19.57;;;15.80;99.90;;;;;;5072094;28;20736;-67
2022/04/15 09:23:52;;;;;;;20.67;17.73;;;15.90;99.90;;;;;;5071746;28;20229;-66
2022/04/15 09:26:20;;;;;;;21.50;18.17;;;16.20;99.90;;;;;;5071970;28;20174;-67
2022/04/15 09:28:45;;;;;;;22.53;19.07;;;16.30;99.90;;;;;;5072019;28;20166;-66
2022/04/15 09:31:16;;;;;;;21.50;19.17;;;16.10;99.90;;;;;;5071897;28;20177;-66
2022/04/15 09:34:01;;;;;;;21.73;19.43;;;16.40;99.90;;;;;;5071865;28;20209;-66
2022/04/15 09:36:32;;;;;;;22.60;19.20;;;16.90;99.90;;;;;;5071459;28;20208;-65
2022/04/15 09:39:14;;;;;;;23.03;19.70;;;17.00;99.90;;;;;;5071685;28;20220;-66
2022/04/15 09:42:03;;;;;;;22.27;19.30;;;17.10;99.90;;;;;;5071341;28;20655;-66
2022/04/15 09:44:32;;;;;;;19.93;17.83;;;17.30;99.90;;;;;;5062484;28;20678;-66
2022/04/15 09:47:03;;;;;;;20.43;18.33;;;17.50;99.90;;;;;;5058732;28;20189;-66
2022/04/15 09:49:32;;;;;;;18.33;16.53;;;17.80;99.90;;;;;;5071550;28;20208;-65
2022/04/15 09:51:59;;;;;;;19.67;17.77;;;17.20;99.90;;;;;;5071138;28;20193;-66
2022/04/15 09:54:27;;;;;;;18.87;16.87;;;17.00;99.90;;;;;;5071589;28;20198;-66
2022/04/15 09:56:57;;;;;;;17.33;15.60;;;17.00;99.90;;;;;;5071361;28;20260;-68
2022/04/15 09:59:24;;;;;;;16.97;15.27;;;17.20;99.90;;;;;;5071529;28;20588;-68
2022/04/15 10:01:54;;;;;;;16.23;14.73;;;17.00;99.90;;;;;;5071089;28;20200;-67
2022/04/15 10:04:20;;;;;;;16.17;14.57;;;17.20;99.90;;;;;;5071469;28;20681;-66
2022/04/15 10:06:46;;;;;;;15.43;13.90;;;17.50;99.90;;;;;;5068930;28;20189;-66
2022/04/15 10:09:13;;;;;;;15.30;13.70;;;17.90;99.90;;;;;;5071381;28;20204;-66
2022/04/15 10:11:43;;;;;;;14.50;13.20;;;18.00;99.90;;;;;;5070084;28;20182;-65
2022/04/15 10:14:13;;;;;;;12.53;11.43;;;18.10;99.90;;;;;;5071236;28;20188;-66
2022/04/15 10:16:39;;;;;;;13.63;12.40;;;18.20;99.90;;;;;;5071001;28;20197;-66
2022/04/15 10:19:06;;;;;;;11.63;10.53;;;18.60;99.90;;;;;;5071184;28;20170;-66
2022/04/15 10:21:35;;;;;;;10.57;9.57;;;19.30;99.90;;;;;;5069551;28;20198;-67
2022/04/15 10:24:01;;;;;;;10.07;9.18;;;20.00;99.90;;;;;;5069339;28;20177;-66
2022/04/15 10:26:33;;;;;;;9.48;8.60;;;20.20;99.90;;;;;;5069254;28;20178;-66
2022/04/15 10:29:03;;;;;;;9.00;8.20;;;20.10;99.90;;;;;;5070999;28;20182;-66
2022/04/15 10:31:37;;;;;;;8.18;7.47;;;20.50;99.90;;;;;;5071194;28;20633;-66
2022/04/15 10:34:22;;;;;;;7.50;6.90;;;20.70;99.90;;;;;;5069597;28;20679;-66
2022/04/15 10:36:48;;;;;;;7.95;7.25;;;20.80;99.90;;;;;;5070603;28;20198;-67
2022/04/15 10:39:19;;;;;;;8.02;7.38;;;20.90;99.90;;;;;;5071060;28;20553;-66
2022/04/15 10:41:51;;;;;;;8.95;8.15;;;20.70;99.90;;;;;;5070912;28;20185;-66
2022/04/15 10:44:36;;;;;;;8.25;7.65;;;20.60;99.90;;;;;;5064272;28;20206;-67
2022/04/15 10:47:04;;;;;;;8.18;7.30;;;20.60;99.90;;;;;;5050727;28;20171;-66
2022/04/15 10:49:33;;;;;;;8.18;7.55;;;20.60;99.90;;;;;;5050990;28;20219;-66
2022/04/15 10:52:02;;;;;;;7.97;7.18;;;20.60;99.90;;;;;;5050533;28;20241;-66
2022/04/15 10:54:38;;;;;;;7.68;6.97;;;19.90;99.90;;;;;;5055553;28;20178;-66
2022/04/15 10:57:15;;;;;;;6.82;6.32;;;19.90;99.90;;;;;;5070499;28;20701;-66
2022/04/15 11:02:39;;;;;;;7.07;6.47;;;20.40;99.90;;;;;;5050673;28;20738;-66
2022/04/15 11:05:05;;;;;;;7.50;6.90;;;20.10;99.90;;;;;;5050250;28;20189;-66
2022/04/15 11:07:48;;;;;;;9.17;8.27;;;19.80;99.90;;;;;;5050826;28;20541;-66
2022/04/15 11:10:39;;;;;;;9.25;8.40;;;19.80;99.90;;;;;;5048635;28;20175;-67
2022/04/15 11:13:34;;;;;;;10.50;9.50;;;19.60;99.90;;;;;;5051020;28;20220;-66
2022/04/15 11:16:15;;;;;;;11.60;10.37;;;19.30;99.90;;;;;;5040667;28;20706;-66
2022/04/15 11:18:48;;;;;;;10.67;9.37;;;19.30;99.90;;;;;;5051478;28;20536;-68
2022/04/15 11:21:29;;;;;;;12.60;11.50;;;19.10;99.90;;;;;;5050224;28;20175;-65
2022/04/15 11:24:00;;;;;;;12.53;11.40;;;18.70;99.90;;;;;;5052330;28;20171;-67
2022/04/15 11:26:28;;;;;;;10.97;10.07;;;18.60;99.90;;;;;;5054999;28;20450;-66
2022/04/15 11:28:56;;;;;;;14.03;12.70;;;18.60;99.90;;;;;;5051103;28;20175;-66
2022/04/15 11:31:30;;;;;;;11.83;10.73;;;18.70;99.90;;;;;;5051328;28;20195;-68
2022/04/15 11:34:06;;;;;;;11.50;10.40;;;19.20;99.90;;;;;;5049526;28;20182;-67
2022/04/15 11:36:38;;;;;;;11.73;10.57;;;19.50;99.90;;;;;;5050924;28;20201;-66
2022/04/15 11:39:06;;;;;;;13.47;12.07;;;19.70;99.90;;;;;;5052029;28;20692;-66
2022/04/15 11:41:33;;;;;;;12.17;11.17;;;19.00;99.90;;;;;;5054397;28;20171;-68
2022/04/15 11:43:59;;;;;;;15.33;13.50;;;18.80;99.90;;;;;;5058382;28;20181;-65
2022/04/15 11:46:49;;;;;;;14.17;12.87;;;18.50;99.90;;;;;;5074048;28;20536;-66
2022/04/15 11:49:31;;;;;;;13.47;12.17;;;18.50;99.90;;;;;;5073263;28;20170;-66
2022/04/15 11:52:00;;;;;;;12.10;10.77;;;18.80;99.90;;;;;;5074234;28;20239;-66
2022/04/15 11:54:34;;;;;;;12.30;11.20;;;19.30;99.90;;;;;;5073142;28;20204;-68
2022/04/15 11:57:05;;;;;;;16.03;13.47;;;19.90;99.90;;;;;;5063698;28;20720;-66
2022/04/15 11:59:38;;;;;;;16.43;14.77;;;19.90;99.90;;;;;;5053227;28;20270;-68
2022/04/15 12:02:04;;;;;;;16.83;15.03;;;19.80;99.90;;;;;;5053983;28;20198;-67
2022/04/15 12:04:30;;;;;;;18.23;16.27;;;20.10;99.90;;;;;;5052731;28;20545;-67
2022/04/15 12:06:56;;;;;;;19.45;17.17;;;20.30;99.90;;;;;;5052795;28;20597;-67
2022/04/15 12:09:24;;;;;;;18.38;16.48;;;20.40;99.90;;;;;;5053157;28;20245;-67
2022/04/15 12:11:50;;;;;;;19.50;17.37;;;20.10;99.90;;;;;;5053740;28;20202;-67
2022/04/15 12:14:17;;;;;;;22.37;19.97;;;19.80;99.90;;;;;;5052899;28;20257;-67
2022/04/15 12:16:48;;;;;;;20.07;16.97;;;19.90;99.90;;;;;;5052681;28;20309;-66
2022/04/15 12:19:14;;;;;;;19.13;16.25;;;20.00;99.90;;;;;;5052670;28;20198;-65
2022/04/15 12:21:42;;;;;;;20.90;18.67;;;20.10;99.90;;;;;;5053840;28;20631;-67
2022/04/15 12:24:19;;;;;;;19.37;17.37;;;19.80;99.90;;;;;;5053782;28;20163;-65
2022/04/15 12:26:45;;;;;;;22.17;18.47;;;19.90;99.90;;;;;;5054053;28;20174;-67
2022/04/15 12:32:22;;;;;;;16.83;14.63;;;19.90;99.90;;;;;;5053796;28;20201;-67
2022/04/15 12:35:12;;;;;;;18.35;16.45;;;20.00;99.90;;;;;;5053605;28;20224;-66
2022/04/15 12:37:43;;;;;;;14.53;13.03;;;19.70;99.90;;;;;;5049694;28;20214;-66
2022/04/15 12:40:30;;;;;;;15.23;11.40;;;19.70;99.90;;;;;;5052508;28;20179;-66
2022/04/15 12:42:57;;;;;;;14.93;12.57;;;19.40;99.90;;;;;;5052749;28;20206;-66